Time;durP1;ratioP1;P1;durP2;ratioP2;P2;SDS_P1;SDS_P2;PMS_P1;PMS_P2;Temp;Humidity;BMP_temperature;BMP_pressure;BME280_temperature;BME280_humidity;BME280_pressure;Samples;Min_cycle;Max_cycle;Signal;HPM_P1;HPM_P2
2023/03/19 00:00:08;;;;;;;;;;;;;;;17.11;100.00;100893.34;4996886;28;19914;-53
2023/03/19 00:02:34;;;;;;;;;;;;;;;17.06;100.00;100907.53;4991928;28;19954;-56
2023/03/19 00:05:00;;;;;;;;;;;;;;;17.27;100.00;100907.97;4989592;28;19926;-51
2023/03/19 00:07:25;;;;;;;;;;;;;;;17.41;100.00;100907.72;4994369;28;19977;-57
2023/03/19 00:09:51;;;;;;;;;;;;;;;17.12;100.00;100915.78;4993730;28;19914;-56
2023/03/19 00:12:16;;;;;;;;;;;;;;;17.48;100.00;100911.94;4992572;28;19918;-54
2023/03/19 00:14:42;;;;;;;;;;;;;;;17.22;100.00;100909.78;4995829;28;19957;-56
2023/03/19 00:17:07;;;;;;;;;;;;;;;17.15;100.00;100912.59;4996195;28;19914;-55
2023/03/19 00:19:33;;;;;;;;;;;;;;;17.55;100.00;100914.50;4994823;28;19918;-55
2023/03/19 00:21:58;;;;;;;;;;;;;;;17.48;100.00;100908.41;4993893;28;19940;-55
2023/03/19 00:24:24;;;;;;;;;;;;;;;17.56;100.00;100918.00;4992660;28;19925;-54
2023/03/19 00:26:50;;;;;;;;;;;;;;;17.39;100.00;100909.84;4992826;28;19972;-51
2023/03/19 00:29:16;;;;;;;;;;;;;;;17.27;100.00;100921.50;4994590;28;19925;-53
2023/03/19 00:31:41;;;;;;;;;;;;;;;17.45;100.00;100920.53;4991838;28;19973;-56
2023/03/19 00:34:07;;;;;;;;;;;;;;;17.43;100.00;100913.72;4991409;28;20009;-56
2023/03/19 00:36:33;;;;;;;;;;;;;;;17.39;100.00;100920.66;5028026;28;19953;-53
2023/03/19 00:38:59;;;;;;;;;;;;;;;17.42;100.00;100915.59;5022927;28;19913;-55
2023/03/19 00:41:25;;;;;;;;;;;;;;;17.33;100.00;100917.03;5000249;28;19940;-57
2023/03/19 00:43:55;;;;;;;;;;;;;;;17.49;100.00;100926.25;4995636;28;19922;-54
2023/03/19 00:46:20;;;;;;;;;;;;;;;17.24;100.00;100930.06;4992221;28;19933;-55
2023/03/19 00:48:48;;;;;;;;;;;;;;;17.20;100.00;100931.63;4991992;28;19920;-55
2023/03/19 00:51:13;;;;;;;;;;;;;;;17.22;100.00;100931.41;4993847;28;19909;-55
2023/03/19 00:53:41;;;;;;;;;;;;;;;17.04;100.00;100925.88;4993544;28;19914;-56
2023/03/19 00:56:06;;;;;;;;;;;;;;;17.01;100.00;100920.16;5041858;28;19972;-55
2023/03/19 00:58:32;;;;;;;;;;;;;;;17.30;100.00;100917.50;4993078;28;19918;-49
2023/03/19 01:00:59;;;;;;;;;;;;;;;17.32;100.00;100915.38;4980452;28;19964;-54
2023/03/19 01:03:25;;;;;;;;;;;;;;;17.72;100.00;100921.84;4992379;28;19913;-54
2023/03/19 01:05:50;;;;;;;;;;;;;;;17.52;100.00;100917.66;4992862;28;19941;-53
2023/03/19 01:08:17;;;;;;;;;;;;;;;17.29;100.00;100915.88;4994267;28;19948;-56
2023/03/19 01:10:43;;;;;;;;;;;;;;;17.73;100.00;100916.19;5009334;28;19914;-54
2023/03/19 01:13:09;;;;;;;;;;;;;;;17.66;100.00;100915.53;4990651;28;19932;-53
2023/03/19 01:15:39;;;;;;;;;;;;;;;17.64;100.00;100914.91;5006509;28;19953;-56
2023/03/19 01:18:05;;;;;;;;;;;;;;;17.58;100.00;100918.59;4993692;28;19925;-55
2023/03/19 01:20:30;;;;;;;;;;;;;;;17.77;100.00;100916.53;4988181;28;19974;-57
2023/03/19 01:22:56;;;;;;;;;;;;;;;17.98;100.00;100923.13;5003292;28;19913;-53
2023/03/19 01:25:22;;;;;;;;;;;;;;;18.04;100.00;100924.09;5004314;28;19973;-55
2023/03/19 01:27:59;;;;;;;;;;;;;;;17.60;100.00;100922.72;4989222;28;19986;-54
2023/03/19 01:30:25;;;;;;;;;;;;;;;17.90;100.00;100915.44;4999885;28;19992;-51
2023/03/19 01:33:10;;;;;;;;;;;;;;;17.63;100.00;100921.38;5008237;28;19918;-56
2023/03/19 01:35:52;;;;;;;;;;;;;;;17.91;100.00;100917.06;5010153;28;20025;-56
2023/03/19 01:38:20;;;;;;;;;;;;;;;17.84;100.00;100925.31;4979494;28;19940;-56
2023/03/19 01:40:47;;;;;;;;;;;;;;;17.83;100.00;100925.56;4974004;28;19923;-55
2023/03/19 01:43:16;;;;;;;;;;;;;;;17.68;100.00;100926.91;4972572;28;19974;-55
2023/03/19 01:46:02;;;;;;;;;;;;;;;17.94;100.00;100926.56;4970113;28;19919;-51
2023/03/19 01:48:52;;;;;;;;;;;;;;;17.77;100.00;100924.66;4971715;28;21220;-51
2023/03/19 01:51:21;;;;;;;;;;;;;;;17.88;100.00;100923.78;4969706;28;19914;-56
2023/03/19 01:54:07;;;;;;;;;;;;;;;17.18;100.00;100928.34;4970601;28;19918;-54
2023/03/19 01:56:42;;;;;;;;;;;;;;;17.38;100.00;100925.22;4969357;28;19941;-54
2023/03/19 01:59:20;;;;;;;;;;;;;;;17.22;100.00;100926.78;4972440;28;19914;-51
2023/03/19 02:02:19;;;;;;;;;;;;;;;17.41;100.00;100932.06;4972011;28;19950;-51
2023/03/19 02:04:46;;;;;;;;;;;;;;;17.07;100.00;100919.19;4969662;28;19918;-57
2023/03/19 02:07:12;;;;;;;;;;;;;;;17.18;100.00;100920.22;4969928;28;19914;-54
2023/03/19 02:09:40;;;;;;;;;;;;;;;16.96;100.00;100920.81;4970609;28;19922;-54
2023/03/19 02:12:06;;;;;;;;;;;;;;;16.99;100.00;100919.56;4969118;28;19930;-54
2023/03/19 02:14:31;;;;;;;;;;;;;;;16.92;100.00;100922.34;4954026;28;19925;-54
2023/03/19 02:16:57;;;;;;;;;;;;;;;17.14;100.00;100919.06;4964661;28;19914;-55
2023/03/19 02:19:30;;;;;;;;;;;;;;;17.14;100.00;100927.16;4966581;28;19918;-55
2023/03/19 02:21:56;;;;;;;;;;;;;;;17.19;100.00;100919.16;4968848;28;19940;-54
2023/03/19 02:24:31;;;;;;;;;;;;;;;17.13;100.00;100922.84;4967558;28;19922;-55
2023/03/19 02:27:01;;;;;;;;;;;;;;;16.90;100.00;100922.56;4970572;28;19922;-55
2023/03/19 02:29:27;;;;;;;;;;;;;;;17.17;100.00;100929.41;4967804;28;19922;-54
2023/03/19 02:31:56;;;;;;;;;;;;;;;17.10;100.00;100924.13;4970526;28;19940;-53
2023/03/19 02:34:21;;;;;;;;;;;;;;;17.10;100.00;100923.31;4967127;28;19914;-53
2023/03/19 02:36:50;;;;;;;;;;;;;;;17.30;100.00;100914.81;4968584;28;19919;-54
2023/03/19 02:39:21;;;;;;;;;;;;;;;17.29;100.00;100916.66;4996126;28;19979;-53
2023/03/19 02:41:47;;;;;;;;;;;;;;;17.16;100.00;100931.25;4989741;28;19925;-51
2023/03/19 02:44:13;;;;;;;;;;;;;;;17.25;100.00;100936.31;4989607;28;19919;-54
2023/03/19 02:46:38;;;;;;;;;;;;;;;17.31;100.00;100927.25;4989512;28;19918;-54
2023/03/19 02:49:04;;;;;;;;;;;;;;;17.29;100.00;100926.66;4989281;28;19926;-56
2023/03/19 02:51:29;;;;;;;;;;;;;;;16.92;100.00;100935.84;4988521;28;20400;-52
2023/03/19 02:53:55;;;;;;;;;;;;;;;16.88;100.00;100934.69;4987062;28;19914;-54
2023/03/19 02:56:20;;;;;;;;;;;;;;;16.78;100.00;100927.97;4989176;28;20000;-52
2023/03/19 02:58:45;;;;;;;;;;;;;;;17.13;100.00;100933.63;4987580;28;19925;-54
2023/03/19 03:01:11;;;;;;;;;;;;;;;17.21;100.00;100922.44;5012221;28;19989;-52
2023/03/19 03:03:38;;;;;;;;;;;;;;;17.29;100.00;100932.88;4987588;28;19918;-52
2023/03/19 03:06:03;;;;;;;;;;;;;;;17.26;100.00;100940.66;4996503;28;19918;-53
2023/03/19 03:08:28;;;;;;;;;;;;;;;17.15;100.00;100942.31;4990733;28;19961;-53
2023/03/19 03:10:54;;;;;;;;;;;;;;;17.30;100.00;100937.25;4985759;28;19944;-53
2023/03/19 03:13:20;;;;;;;;;;;;;;;17.31;100.00;100938.91;4989991;28;19914;-53
2023/03/19 03:15:45;;;;;;;;;;;;;;;17.06;100.00;100931.84;5001967;28;19914;-55
2023/03/19 03:18:11;;;;;;;;;;;;;;;16.99;100.00;100939.28;4989682;28;19937;-53
2023/03/19 03:20:37;;;;;;;;;;;;;;;17.14;100.00;100937.97;4987178;28;19917;-57
2023/03/19 03:23:03;;;;;;;;;;;;;;;17.24;100.00;100946.28;4987418;28;19918;-53
2023/03/19 03:25:29;;;;;;;;;;;;;;;17.04;100.00;100941.28;4993752;28;19918;-54
2023/03/19 03:27:55;;;;;;;;;;;;;;;16.96;100.00;100939.72;4991784;28;19914;-52
2023/03/19 03:30:21;;;;;;;;;;;;;;;17.08;100.00;100944.34;4987214;28;19929;-54
2023/03/19 03:32:47;;;;;;;;;;;;;;;17.37;100.00;100933.59;4987604;28;19914;-51
2023/03/19 03:35:14;;;;;;;;;;;;;;;17.34;100.00;100945.69;4988954;28;19914;-51
2023/03/19 03:37:40;;;;;;;;;;;;;;;17.34;100.00;100933.00;4986856;28;19949;-54
2023/03/19 03:40:07;;;;;;;;;;;;;;;17.19;100.00;100938.91;5004433;28;19921;-54
2023/03/19 03:42:35;;;;;;;;;;;;;;;17.29;100.00;100949.09;4986995;28;19941;-53
2023/03/19 03:45:00;;;;;;;;;;;;;;;17.48;100.00;100940.84;5004824;28;19919;-55
2023/03/19 03:47:26;;;;;;;;;;;;;;;17.39;100.00;100942.28;5006034;28;19936;-54
2023/03/19 03:49:51;;;;;;;;;;;;;;;17.44;100.00;100945.09;4998826;28;19914;-55
2023/03/19 03:52:16;;;;;;;;;;;;;;;17.11;100.00;100949.28;4995891;28;19913;-55
2023/03/19 03:54:42;;;;;;;;;;;;;;;17.37;100.00;100955.22;4989297;28;19974;-53
2023/03/19 03:57:08;;;;;;;;;;;;;;;17.55;100.00;100951.53;5006837;28;19914;-54
2023/03/19 03:59:33;;;;;;;;;;;;;;;17.14;100.00;100951.50;4995637;28;19914;-53
2023/03/19 04:01:58;;;;;;;;;;;;;;;17.44;100.00;100945.09;5002741;28;19918;-52
2023/03/19 04:04:24;;;;;;;;;;;;;;;17.59;100.00;100948.09;4987708;28;19933;-55
2023/03/19 04:06:49;;;;;;;;;;;;;;;17.47;100.00;100947.31;4987289;28;19921;-54
2023/03/19 04:09:25;;;;;;;;;;;;;;;17.33;100.00;100942.19;4997961;28;19973;-49
2023/03/19 04:11:51;;;;;;;;;;;;;;;17.16;100.00;100943.97;4982556;28;19957;-50
2023/03/19 04:14:16;;;;;;;;;;;;;;;17.67;100.00;100948.78;4989996;28;19913;-54
2023/03/19 04:16:43;;;;;;;;;;;;;;;17.11;100.00;100952.78;4992325;28;19978;-51
2023/03/19 04:19:09;;;;;;;;;;;;;;;17.23;100.00;100949.25;4998492;28;19914;-50
2023/03/19 04:21:35;;;;;;;;;;;;;;;17.22;100.00;100950.31;4985944;28;19929;-50
2023/03/19 04:24:01;;;;;;;;;;;;;;;17.50;100.00;100952.22;4998288;28;19922;-53
2023/03/19 04:26:26;;;;;;;;;;;;;;;17.32;100.00;100959.47;4992860;28;19921;-54
2023/03/19 04:28:52;;;;;;;;;;;;;;;17.68;100.00;100953.13;4989957;28;20006;-53
2023/03/19 04:31:17;;;;;;;;;;;;;;;17.73;100.00;100955.94;5000798;28;19920;-51
2023/03/19 04:33:43;;;;;;;;;;;;;;;17.28;100.00;100960.16;4985693;28;19902;-53
2023/03/19 04:36:08;;;;;;;;;;;;;;;16.63;100.00;100960.84;5016590;28;19937;-51
2023/03/19 04:38:35;;;;;;;;;;;;;;;16.82;100.00;100957.22;5003739;28;19925;-49
2023/03/19 04:41:01;;;;;;;;;;;;;;;16.73;100.00;100962.16;4992678;28;19929;-50
2023/03/19 04:43:27;;;;;;;;;;;;;;;16.64;100.00;100958.97;4970927;28;19945;-53
2023/03/19 04:45:53;;;;;;;;;;;;;;;16.79;100.00;100961.22;5014933;28;19914;-51
2023/03/19 04:48:20;;;;;;;;;;;;;;;17.22;100.00;100961.94;5020955;28;19925;-49
2023/03/19 04:50:51;;;;;;;;;;;;;;;16.68;100.00;100962.00;5001805;28;20288;-52
2023/03/19 04:53:19;;;;;;;;;;;;;;;16.92;100.00;100960.97;4988264;28;19914;-54
2023/03/19 04:55:46;;;;;;;;;;;;;;;16.66;100.00;100962.25;4993332;28;19960;-52
2023/03/19 04:58:16;;;;;;;;;;;;;;;16.61;100.00;100957.56;5005950;28;20009;-54
2023/03/19 05:00:45;;;;;;;;;;;;;;;16.81;100.00;100961.81;5006104;28;19921;-49
2023/03/19 05:03:13;;;;;;;;;;;;;;;16.71;100.00;100970.47;5005527;28;19923;-54
2023/03/19 05:05:38;;;;;;;;;;;;;;;16.49;100.00;100965.63;4992555;28;19925;-55
2023/03/19 05:08:07;;;;;;;;;;;;;;;16.64;100.00;100972.47;4995795;28;19977;-52
2023/03/19 05:10:33;;;;;;;;;;;;;;;16.58;100.00;100976.94;5006868;28;19929;-52
2023/03/19 05:12:58;;;;;;;;;;;;;;;16.80;100.00;100980.94;4988896;28;19946;-49
2023/03/19 05:15:24;;;;;;;;;;;;;;;16.54;100.00;100975.75;5001129;28;19924;-52
2023/03/19 05:17:58;;;;;;;;;;;;;;;16.51;100.00;100980.78;5000254;28;20274;-52
2023/03/19 05:20:43;;;;;;;;;;;;;;;16.30;100.00;100985.66;4997032;28;19914;-53
2023/03/19 05:23:16;;;;;;;;;;;;;;;16.48;100.00;100988.28;4991671;28;20336;-54
2023/03/19 05:25:48;;;;;;;;;;;;;;;16.49;100.00;100989.94;5002023;28;19918;-54
2023/03/19 05:28:20;;;;;;;;;;;;;;;16.63;100.00;100989.75;4998897;28;19914;-53
2023/03/19 05:30:46;;;;;;;;;;;;;;;16.67;100.00;100988.22;4982473;28;19985;-53
2023/03/19 05:33:24;;;;;;;;;;;;;;;16.47;100.00;100996.59;5003273;28;19914;-54
2023/03/19 05:35:52;;;;;;;;;;;;;;;16.13;100.00;100997.09;4999318;28;19970;-54
2023/03/19 05:38:24;;;;;;;;;;;;;;;16.37;100.00;101002.56;4995241;28;19941;-55
2023/03/19 05:40:56;;;;;;;;;;;;;;;16.66;100.00;101015.44;5002362;28;19953;-54
2023/03/19 05:43:28;;;;;;;;;;;;;;;16.45;100.00;101010.34;4996094;28;19961;-54
2023/03/19 05:45:55;;;;;;;;;;;;;;;16.60;100.00;101015.31;4992722;28;19914;-54
2023/03/19 05:48:26;;;;;;;;;;;;;;;16.66;100.00;101013.56;5014103;28;19929;-51
2023/03/19 05:50:52;;;;;;;;;;;;;;;16.39;100.00;101007.75;5021413;28;19977;-53
2023/03/19 05:53:20;;;;;;;;;;;;;;;16.37;100.00;101012.56;5001096;28;19930;-56
2023/03/19 05:56:15;;;;;;;;;;;;;;;16.41;100.00;101019.97;4975310;28;19922;-55
2023/03/19 05:59:01;;;;;;;;;;;;;;;16.22;100.00;101026.47;5003979;28;19918;-55
2023/03/19 06:01:34;;;;;;;;;;;;;;;16.15;100.00;101026.56;5002491;28;19917;-52
2023/03/19 06:04:00;;;;;;;;;;;;;;;16.30;100.00;101026.13;5012526;28;20343;-50
2023/03/19 06:06:25;;;;;;;;;;;;;;;16.22;100.00;101026.47;5004154;28;19913;-53
2023/03/19 06:08:52;;;;;;;;;;;;;;;16.66;100.00;101032.47;4990275;28;19997;-51
2023/03/19 06:11:25;;;;;;;;;;;;;;;16.38;100.00;101030.38;5008750;28;19914;-52
2023/03/19 06:14:07;;;;;;;;;;;;;;;16.37;100.00;101037.66;5002576;28;19914;-54
2023/03/19 06:16:38;;;;;;;;;;;;;;;16.53;100.00;101041.59;5012618;28;19922;-52
2023/03/19 06:19:04;;;;;;;;;;;;;;;16.68;100.00;101043.84;4989281;28;19976;-54
2023/03/19 06:21:30;;;;;;;;;;;;;;;16.69;100.00;101040.09;5007308;28;19914;-52
2023/03/19 06:23:59;;;;;;;;;;;;;;;16.28;100.00;101037.16;5006585;28;19925;-51
2023/03/19 06:26:32;;;;;;;;;;;;;;;16.61;100.00;101037.75;5014464;28;19918;-52
2023/03/19 06:28:58;;;;;;;;;;;;;;;16.47;100.00;101053.28;5008350;28;19914;-52
2023/03/19 06:31:24;;;;;;;;;;;;;;;16.72;100.00;101055.84;5000929;28;19938;-50
2023/03/19 06:33:49;;;;;;;;;;;;;;;16.47;100.00;101056.00;4990354;28;19914;-54
2023/03/19 06:36:15;;;;;;;;;;;;;;;16.60;100.00;101049.56;5001475;28;19945;-53
2023/03/19 06:38:41;;;;;;;;;;;;;;;16.15;100.00;101054.38;4970578;28;19925;-49
2023/03/19 06:41:06;;;;;;;;;;;;;;;16.39;100.00;101056.31;4968633;28;19950;-52
2023/03/19 06:43:35;;;;;;;;;;;;;;;16.73;100.00;101059.38;4969696;28;19915;-54
2023/03/19 06:46:05;;;;;;;;;;;;;;;17.09;100.00;101068.38;4970898;28;19918;-54
2023/03/19 06:48:31;;;;;;;;;;;;;;;16.84;100.00;101065.81;4972625;28;19922;-52
2023/03/19 06:50:57;;;;;;;;;;;;;;;16.45;100.00;101071.59;4966924;28;20052;-55
2023/03/19 06:53:23;;;;;;;;;;;;;;;16.51;100.00;101075.25;4970690;28;19914;-52
2023/03/19 06:55:48;;;;;;;;;;;;;;;16.38;100.00;101070.88;4968982;28;19974;-52
2023/03/19 06:58:14;;;;;;;;;;;;;;;15.93;100.00;101080.97;4970910;28;19925;-54
2023/03/19 07:00:40;;;;;;;;;;;;;;;16.11;100.00;101076.63;4972145;28;19977;-51
2023/03/19 07:03:06;;;;;;;;;;;;;;;16.32;100.00;101083.41;4970142;28;19922;-54
2023/03/19 07:05:31;;;;;;;;;;;;;;;16.20;100.00;101083.34;4969638;28;19922;-52
2023/03/19 07:07:56;;;;;;;;;;;;;;;16.33;100.00;101093.13;4970919;28;19974;-50
2023/03/19 07:10:22;;;;;;;;;;;;;;;16.26;100.00;101089.72;4969343;28;19956;-55
2023/03/19 07:12:47;;;;;;;;;;;;;;;16.10;100.00;101083.88;4969895;28;19914;-52
2023/03/19 07:15:13;;;;;;;;;;;;;;;16.58;100.00;101092.19;4968998;28;19918;-54
2023/03/19 07:17:39;;;;;;;;;;;;;;;16.33;100.00;101093.13;4968501;28;19914;-51
2023/03/19 07:20:05;;;;;;;;;;;;;;;16.49;100.00;101092.50;4967916;28;19918;-51
2023/03/19 07:22:31;;;;;;;;;;;;;;;15.90;100.00;101100.31;4970227;28;19914;-52
2023/03/19 07:24:56;;;;;;;;;;;;;;;15.91;100.00;101102.78;4968383;28;19953;-55
2023/03/19 07:27:22;;;;;;;;;;;;;;;16.36;100.00;101108.88;4972270;28;19977;-51
2023/03/19 07:29:47;;;;;;;;;;;;;;;16.33;100.00;101103.94;4970093;28;19941;-53
2023/03/19 07:32:13;;;;;;;;;;;;;;;16.70;100.00;101111.13;4969344;28;19925;-53
2023/03/19 07:34:39;;;;;;;;;;;;;;;16.92;100.00;101106.84;4967803;28;19911;-54
2023/03/19 07:37:05;;;;;;;;;;;;;;;16.90;100.00;101121.66;4975173;28;19921;-51
2023/03/19 07:39:30;;;;;;;;;;;;;;;17.12;100.00;101123.84;4989710;28;19940;-53
2023/03/19 07:41:56;;;;;;;;;;;;;;;16.95;100.00;101121.78;4989880;28;19914;-54
2023/03/19 07:44:22;;;;;;;;;;;;;;;16.61;100.00;101121.44;4986661;28;19994;-53
2023/03/19 07:46:47;;;;;;;;;;;;;;;17.42;100.00;101125.63;4987641;28;19936;-53
2023/03/19 07:49:12;;;;;;;;;;;;;;;17.56;100.00;101135.16;4985670;28;19974;-54
2023/03/19 07:51:38;;;;;;;;;;;;;;;17.10;100.00;101134.06;4987432;28;19929;-52
2023/03/19 07:54:04;;;;;;;;;;;;;;;16.89;100.00;101138.91;4988351;28;20024;-54
2023/03/19 07:56:30;;;;;;;;;;;;;;;16.67;100.00;101136.72;4987771;28;20408;-50
2023/03/19 07:58:55;;;;;;;;;;;;;;;16.88;100.00;101137.25;4982914;28;19936;-51
2023/03/19 08:01:20;;;;;;;;;;;;;;;16.86;100.00;101144.78;4989730;28;19945;-52
2023/03/19 08:03:47;;;;;;;;;;;;;;;16.67;100.00;101142.13;4989194;28;19922;-52
2023/03/19 08:06:13;;;;;;;;;;;;;;;16.99;100.00;101149.19;4985867;28;19914;-52
2023/03/19 08:08:39;;;;;;;;;;;;;;;17.23;100.00;101149.25;4988914;28;19921;-55
2023/03/19 08:11:05;;;;;;;;;;;;;;;17.49;100.00;101164.19;4992161;28;19914;-54
2023/03/19 08:13:31;;;;;;;;;;;;;;;17.42;100.00;101155.38;4990797;28;19917;-51
2023/03/19 08:15:56;;;;;;;;;;;;;;;17.19;100.00;101165.91;4994042;28;20338;-53
2023/03/19 08:18:22;;;;;;;;;;;;;;;17.79;100.00;101163.25;4987999;28;19925;-52
2023/03/19 08:20:47;;;;;;;;;;;;;;;17.58;100.00;101165.50;4992451;28;19921;-52
2023/03/19 08:23:13;;;;;;;;;;;;;;;17.14;100.00;101173.06;4985314;28;19921;-53
2023/03/19 08:25:39;;;;;;;;;;;;;;;16.97;100.00;101167.47;4987192;28;19917;-56
2023/03/19 08:28:04;;;;;;;;;;;;;;;17.11;100.00;101173.53;4987235;28;19922;-55
2023/03/19 08:30:30;;;;;;;;;;;;;;;17.58;100.00;101181.72;4988572;28;19933;-53
2023/03/19 08:32:56;;;;;;;;;;;;;;;17.91;100.00;101183.00;4990103;28;19952;-52
2023/03/19 08:35:22;;;;;;;;;;;;;;;17.64;100.00;101171.81;4992424;28;19918;-55
2023/03/19 08:37:48;;;;;;;;;;;;;;;17.54;100.00;101172.44;4987710;28;19925;-55
2023/03/19 08:40:13;;;;;;;;;;;;;;;17.80;100.00;101181.13;4992391;28;19925;-53
2023/03/19 08:42:40;;;;;;;;;;;;;;;17.84;100.00;101184.19;4985499;28;19915;-55
2023/03/19 08:45:06;;;;;;;;;;;;;;;17.97;100.00;101177.69;4985959;28;19918;-54
2023/03/19 08:47:32;;;;;;;;;;;;;;;18.86;100.00;101179.25;4991812;28;19945;-51
2023/03/19 08:49:59;;;;;;;;;;;;;;;19.55;100.00;101177.44;4992864;28;19918;-51
2023/03/19 08:52:24;;;;;;;;;;;;;;;18.67;100.00;101199.47;4991276;28;19914;-55
2023/03/19 08:54:50;;;;;;;;;;;;;;;18.41;100.00;101197.06;4986881;28;19978;-54
2023/03/19 08:57:15;;;;;;;;;;;;;;;18.02;100.00;101197.63;4991245;28;19918;-54
2023/03/19 08:59:40;;;;;;;;;;;;;;;17.49;100.00;101194.75;4994039;28;19914;-54
2023/03/19 09:02:06;;;;;;;;;;;;;;;18.12;100.00;101202.44;4987562;28;19914;-53
2023/03/19 09:04:36;;;;;;;;;;;;;;;17.97;100.00;101196.63;5001772;28;19950;-56
2023/03/19 09:07:01;;;;;;;;;;;;;;;17.69;100.00;101195.47;4991089;28;19934;-53
2023/03/19 09:09:27;;;;;;;;;;;;;;;18.14;100.00;101211.13;4986935;28;19972;-52
2023/03/19 09:11:52;;;;;;;;;;;;;;;18.60;100.00;101211.28;4991385;28;19971;-55
2023/03/19 09:14:21;;;;;;;;;;;;;;;17.67;100.00;101213.81;4987856;28;19914;-55
2023/03/19 09:16:47;;;;;;;;;;;;;;;17.43;100.00;101217.31;4985810;28;19925;-51
2023/03/19 09:19:13;;;;;;;;;;;;;;;17.29;100.00;101227.50;4987414;28;19913;-53
2023/03/19 09:21:39;;;;;;;;;;;;;;;16.82;100.00;101235.41;4991678;28;19921;-51
2023/03/19 09:24:04;;;;;;;;;;;;;;;17.35;100.00;101236.56;4982557;28;19918;-50
2023/03/19 09:26:30;;;;;;;;;;;;;;;16.91;100.00;101236.75;4987986;28;19930;-54
2023/03/19 09:28:56;;;;;;;;;;;;;;;16.63;100.00;101236.25;4988725;28;20083;-54
2023/03/19 09:31:21;;;;;;;;;;;;;;;16.83;100.00;101237.03;4991658;28;19988;-56
2023/03/19 09:33:47;;;;;;;;;;;;;;;17.25;100.00;101239.81;4988036;28;20385;-53
2023/03/19 09:36:13;;;;;;;;;;;;;;;17.05;100.00;101234.72;4984681;28;19925;-52
2023/03/19 09:38:38;;;;;;;;;;;;;;;17.52;100.00;101239.41;4986785;28;19925;-54
2023/03/19 09:41:03;;;;;;;;;;;;;;;17.80;100.00;101240.66;4989780;28;19918;-52
2023/03/19 09:43:37;;;;;;;;;;;;;;;17.78;100.00;101245.47;4988242;28;19957;-53
2023/03/19 09:46:08;;;;;;;;;;;;;;;18.39;100.00;101247.94;4988217;28;20005;-51
2023/03/19 09:48:39;;;;;;;;;;;;;;;18.13;100.00;101262.81;4988599;28;19914;-51
2023/03/19 09:51:06;;;;;;;;;;;;;;;17.92;100.00;101271.22;4992336;28;20016;-50
2023/03/19 09:53:36;;;;;;;;;;;;;;;18.44;100.00;101263.47;4988178;28;19962;-55
2023/03/19 09:56:04;;;;;;;;;;;;;;;18.70;100.00;101272.13;4982344;28;19917;-54
2023/03/19 09:58:31;;;;;;;;;;;;;;;18.33;100.00;101270.56;4986304;28;19914;-55
2023/03/19 10:00:58;;;;;;;;;;;;;;;18.71;100.00;101271.06;4989739;28;19956;-50
2023/03/19 10:03:41;;;;;;;;;;;;;;;18.85;100.00;101272.47;4991083;28;19940;-55
2023/03/19 10:06:28;;;;;;;;;;;;;;;18.38;100.00;101272.56;4991510;28;19932;-53
2023/03/19 10:09:00;;;;;;;;;;;;;;;18.81;100.00;101275.88;4987819;28;19922;-50
2023/03/19 10:11:32;;;;;;;;;;;;;;;18.94;100.00;101275.63;4993303;28;19925;-53
2023/03/19 10:14:03;;;;;;;;;;;;;;;19.45;100.00;101273.03;4982639;28;20305;-56
2023/03/19 10:16:29;;;;;;;;;;;;;;;20.10;100.00;101270.03;4991594;28;19914;-55
2023/03/19 10:18:57;;;;;;;;;;;;;;;20.13;100.00;101287.69;4987225;28;19945;-54
2023/03/19 10:21:44;;;;;;;;;;;;;;;18.95;100.00;101276.41;4986164;28;19914;-56
2023/03/19 10:24:12;;;;;;;;;;;;;;;18.93;100.00;101271.25;4990050;28;19918;-54
2023/03/19 10:26:38;;;;;;;;;;;;;;;18.86;100.00;101273.25;4990421;28;19925;-54
2023/03/19 10:29:13;;;;;;;;;;;;;;;19.71;100.00;101272.66;4990858;28;19985;-51
2023/03/19 10:31:45;;;;;;;;;;;;;;;19.54;100.00;101281.59;4988119;28;19922;-53
2023/03/19 10:34:14;;;;;;;;;;;;;;;19.95;100.00;101283.38;4986987;28;19961;-53
2023/03/19 10:36:40;;;;;;;;;;;;;;;20.00;100.00;101286.16;4986189;28;19915;-54
2023/03/19 10:39:06;;;;;;;;;;;;;;;19.84;100.00;101295.91;4990692;28;19978;-53
2023/03/19 10:41:37;;;;;;;;;;;;;;;18.95;100.00;101296.22;4987266;28;19919;-53
2023/03/19 10:44:06;;;;;;;;;;;;;;;18.74;100.00;101292.25;4986883;28;19925;-48
2023/03/19 10:46:38;;;;;;;;;;;;;;;18.93;100.00;101298.34;4983207;28;19914;-54
2023/03/19 10:49:03;;;;;;;;;;;;;;;18.85;100.00;101299.56;4992495;28;19914;-56
2023/03/19 10:51:29;;;;;;;;;;;;;;;17.76;100.00;101293.53;4985273;28;19952;-54
2023/03/19 10:53:59;;;;;;;;;;;;;;;19.04;100.00;101305.63;4986806;28;19918;-53
2023/03/19 10:56:28;;;;;;;;;;;;;;;19.08;100.00;101308.69;4987810;28;19913;-54
2023/03/19 10:59:01;;;;;;;;;;;;;;;19.39;100.00;101319.31;4987247;28;19920;-56
2023/03/19 11:01:34;;;;;;;;;;;;;;;18.82;100.00;101307.31;4985591;28;19914;-50
2023/03/19 11:04:01;;;;;;;;;;;;;;;19.14;100.00;101321.28;4991960;28;19949;-53
2023/03/19 11:06:31;;;;;;;;;;;;;;;19.12;100.00;101314.44;4991943;28;19914;-54
2023/03/19 11:08:58;;;;;;;;;;;;;;;19.12;100.00;101322.56;4989588;28;19914;-54
2023/03/19 11:11:31;;;;;;;;;;;;;;;19.34;100.00;101326.25;4991330;28;19921;-57
2023/03/19 11:13:57;;;;;;;;;;;;;;;19.25;100.00;101325.00;4990063;28;19921;-51
2023/03/19 11:16:22;;;;;;;;;;;;;;;19.15;100.00;101332.97;4984794;28;19915;-54
2023/03/19 11:18:48;;;;;;;;;;;;;;;19.74;100.00;101335.41;4985380;28;19914;-55
2023/03/19 11:21:22;;;;;;;;;;;;;;;20.27;100.00;101334.34;4984793;28;19914;-54
2023/03/19 11:23:52;;;;;;;;;;;;;;;19.68;100.00;101339.06;4982086;28;19915;-49
2023/03/19 11:26:18;;;;;;;;;;;;;;;19.92;100.00;101333.53;4992228;28;19940;-50
2023/03/19 11:28:49;;;;;;;;;;;;;;;19.84;100.00;101334.75;4988271;28;19943;-52
2023/03/19 11:31:18;;;;;;;;;;;;;;;19.86;100.00;101337.19;4986166;28;19915;-54
2023/03/19 11:33:53;;;;;;;;;;;;;;;19.98;100.00;101343.41;4985897;28;19918;-53
2023/03/19 11:36:22;;;;;;;;;;;;;;;19.43;100.00;101336.75;4985258;28;19914;-54
2023/03/19 11:39:08;;;;;;;;;;;;;;;19.38;100.00;101329.31;4989859;28;19933;-52
2023/03/19 11:41:45;;;;;;;;;;;;;;;20.00;100.00;101333.13;5008468;28;19918;-56
2023/03/19 11:44:34;;;;;;;;;;;;;;;21.31;100.00;101336.50;4989049;28;19941;-52
2023/03/19 11:47:11;;;;;;;;;;;;;;;21.32;98.33;101347.13;4982134;28;19914;-55
2023/03/19 11:49:37;;;;;;;;;;;;;;;21.63;95.95;101336.53;4990165;28;19914;-53
2023/03/19 11:52:22;;;;;;;;;;;;;;;22.89;89.23;101337.16;4988801;28;19925;-52
2023/03/19 11:54:57;;;;;;;;;;;;;;;22.81;86.64;101339.56;4989279;28;19973;-55
2023/03/19 11:57:42;;;;;;;;;;;;;;;23.65;82.88;101347.75;4986350;28;19936;-56
2023/03/19 12:00:21;;;;;;;;;;;;;;;23.62;80.86;101346.38;4989883;28;19914;-53
2023/03/19 12:02:47;;;;;;;;;;;;;;;24.42;76.92;101349.59;4986420;28;19914;-54
2023/03/19 12:05:16;;;;;;;;;;;;;;;24.48;75.23;101344.94;4992413;28;19929;-55
2023/03/19 12:07:55;;;;;;;;;;;;;;;24.31;75.18;101340.59;4987147;28;19914;-53
2023/03/19 12:10:37;;;;;;;;;;;;;;;23.52;75.18;101351.00;4983802;28;19914;-55
2023/03/19 12:13:10;;;;;;;;;;;;;;;24.65;72.66;101349.28;4987803;28;19954;-56
2023/03/19 12:15:55;;;;;;;;;;;;;;;27.30;63.54;101348.69;4988596;28;19973;-51
2023/03/19 12:18:41;;;;;;;;;;;;;;;26.75;63.88;101349.94;4987383;28;19964;-54
2023/03/19 12:21:25;;;;;;;;;;;;;;;26.57;62.62;101357.03;4983085;28;19942;-53
2023/03/19 12:24:03;;;;;;;;;;;;;;;26.33;63.03;101353.16;4986712;28;19926;-56
2023/03/19 12:26:31;;;;;;;;;;;;;;;24.87;64.13;101354.41;4983187;28;19977;-55
2023/03/19 12:29:06;;;;;;;;;;;;;;;24.73;65.69;101344.06;4983875;28;19994;-56
2023/03/19 12:31:51;;;;;;;;;;;;;;;23.26;71.02;101351.75;4985883;28;19914;-55
2023/03/19 12:34:38;;;;;;;;;;;;;;;23.31;70.38;101346.31;4988121;28;19914;-53